createdAt,value
2018-03-17T00:00:12.606Z,-0.10
2018-03-17T00:02:39.076Z,-0.10
2018-03-17T00:05:06.089Z,0.00
2018-03-17T00:07:41.548Z,-0.10
2018-03-17T00:10:07.921Z,-0.10
2018-03-17T00:12:34.435Z,-0.20
2018-03-17T00:15:00.833Z,-0.20
2018-03-17T00:17:34.866Z,-0.10
2018-03-17T00:20:01.113Z,-0.20
2018-03-17T00:22:27.380Z,-0.10
2018-03-17T00:24:53.659Z,-0.10
2018-03-17T00:27:19.913Z,-0.20
2018-03-17T00:29:53.453Z,-0.10
2018-03-17T00:32:19.795Z,-0.10
2018-03-17T00:34:46.084Z,-0.10
2018-03-17T00:37:12.453Z,-0.20
2018-03-17T00:39:39.598Z,-0.10
2018-03-17T00:42:05.911Z,-0.10
2018-03-17T00:44:32.328Z,-0.10
2018-03-17T00:46:58.623Z,-0.10
2018-03-17T00:49:24.943Z,-0.20
2018-03-17T00:51:57.855Z,-0.10
2018-03-17T00:54:26.547Z,-0.10
2018-03-17T00:56:53.442Z,-0.10
2018-03-17T00:59:20.450Z,-0.20
2018-03-17T01:01:46.750Z,-0.20
2018-03-17T01:04:13.850Z,-0.30
2018-03-17T01:06:40.207Z,-0.30
2018-03-17T01:09:06.512Z,-0.10
2018-03-17T01:11:32.868Z,-0.10
2018-03-17T01:13:59.178Z,-0.20
2018-03-17T01:16:31.389Z,-0.30
2018-03-17T01:18:57.695Z,-0.30
2018-03-17T01:21:25.005Z,0.00
2018-03-17T01:23:51.340Z,0.00
2018-03-17T01:26:23.646Z,0.00
2018-03-17T01:29:00.219Z,0.00
2018-03-17T01:31:26.488Z,0.00
2018-03-17T01:33:52.793Z,-0.10
2018-03-17T01:36:19.100Z,-0.20
2018-03-17T01:38:53.010Z,-0.20
2018-03-17T01:41:19.274Z,-0.20
2018-03-17T01:43:46.322Z,-0.20
2018-03-17T01:46:12.589Z,-0.20
2018-03-17T01:48:38.838Z,-0.40
2018-03-17T01:51:05.146Z,-0.30
2018-03-17T01:53:31.418Z,-0.30
2018-03-17T01:55:57.720Z,-0.30
2018-03-17T01:58:24.320Z,-0.40
2018-03-17T02:00:55.014Z,-0.60
2018-03-17T02:03:21.316Z,-0.60
2018-03-17T02:05:59.548Z,-0.60
2018-03-17T02:08:25.998Z,-0.50
2018-03-17T02:10:52.274Z,-0.50
2018-03-17T02:13:18.589Z,-0.50
2018-03-17T02:15:44.840Z,-0.50
2018-03-17T02:18:11.090Z,-0.50
2018-03-17T02:20:37.390Z,-0.60
2018-03-17T02:23:03.626Z,-0.60
2018-03-17T02:25:33.424Z,-0.40
2018-03-17T02:28:06.803Z,-0.60
2018-03-17T02:30:33.078Z,-0.60
2018-03-17T02:33:00.075Z,-0.60
2018-03-17T02:35:26.405Z,-0.60
2018-03-17T02:37:52.717Z,-0.50
2018-03-17T02:40:19.772Z,-0.60
2018-03-17T02:42:48.780Z,-0.60
2018-03-17T02:45:15.026Z,-0.70
2018-03-17T02:47:42.026Z,-0.80
2018-03-17T02:50:08.309Z,-0.80
2018-03-17T02:52:34.610Z,-0.90
2018-03-17T02:55:00.847Z,-0.90
2018-03-17T02:57:27.156Z,-0.80
2018-03-17T02:59:54.152Z,-0.80
2018-03-17T03:02:20.658Z,-0.80
2018-03-17T03:04:47.849Z,-0.30
2018-03-17T03:07:14.152Z,-0.30
2018-03-17T03:09:40.427Z,-0.40
2018-03-17T03:12:13.650Z,-0.50
2018-03-17T03:14:39.918Z,-0.60
2018-03-17T03:17:06.231Z,-0.90
2018-03-17T03:19:32.619Z,-1.00
2018-03-17T03:21:59.642Z,-1.20
2018-03-17T03:24:26.179Z,-1.20
2018-03-17T03:26:52.741Z,-1.20
2018-03-17T03:29:19.014Z,-1.30
2018-03-17T03:31:45.274Z,-1.30
2018-03-17T03:34:12.294Z,-1.40
2018-03-17T03:36:38.595Z,-1.40
2018-03-17T03:39:11.774Z,-1.30
2018-03-17T03:41:39.379Z,-1.30
2018-03-17T03:44:05.659Z,-1.30
2018-03-17T03:46:32.133Z,-1.30
2018-03-17T03:48:58.408Z,-1.10
2018-03-17T03:51:25.440Z,-1.30
2018-03-17T03:53:52.690Z,-1.20
2018-03-17T03:56:18.946Z,-1.30
2018-03-17T03:58:45.230Z,-1.30
2018-03-17T04:01:11.508Z,-1.20
2018-03-17T04:03:37.805Z,-1.30
2018-03-17T04:06:14.368Z,-1.40
2018-03-17T04:08:41.398Z,-1.50
2018-03-17T04:11:07.641Z,-1.50
2018-03-17T04:13:33.868Z,-1.40
2018-03-17T04:16:04.353Z,-1.40
2018-03-17T04:18:30.599Z,-1.40
2018-03-17T04:20:57.631Z,-1.50
2018-03-17T04:23:23.931Z,-1.50
2018-03-17T04:25:50.133Z,-1.40
2018-03-17T04:28:17.128Z,-1.40
2018-03-17T04:30:43.375Z,-1.40
2018-03-17T04:33:09.660Z,-1.40
2018-03-17T04:35:35.916Z,-1.50
2018-03-17T04:38:03.134Z,-1.60
2018-03-17T04:40:29.412Z,-1.60
2018-03-17T04:42:55.906Z,-1.60
2018-03-17T04:45:26.952Z,-1.50
2018-03-17T04:47:53.232Z,-1.50
2018-03-17T04:50:19.517Z,-1.60
2018-03-17T04:52:46.512Z,-1.70
2018-03-17T04:55:12.791Z,-1.70
2018-03-17T04:57:53.728Z,-1.60
2018-03-17T05:00:19.985Z,-1.60
2018-03-17T05:02:46.250Z,-1.60
2018-03-17T05:05:12.514Z,-1.60
2018-03-17T05:07:39.545Z,-1.50
2018-03-17T05:10:06.696Z,-1.60
2018-03-17T05:12:33.163Z,-1.60
2018-03-17T05:15:19.641Z,-1.60
2018-03-17T05:17:45.905Z,-1.60
2018-03-17T05:20:12.335Z,-1.70
2018-03-17T05:22:38.553Z,-1.60
2018-03-17T05:25:04.858Z,-1.70
2018-03-17T05:27:31.116Z,-1.70
2018-03-17T05:29:58.140Z,-1.60
2018-03-17T05:32:26.560Z,-1.70
2018-03-17T05:34:52.992Z,-1.70
2018-03-17T05:37:19.278Z,-1.80
2018-03-17T05:39:45.576Z,-1.80
2018-03-17T05:42:11.854Z,-1.80
2018-03-17T05:44:38.120Z,-1.80
2018-03-17T05:47:04.366Z,-1.70
2018-03-17T05:49:30.788Z,-1.70
2018-03-17T05:51:57.834Z,-1.70
2018-03-17T05:54:38.095Z,-1.70
2018-03-17T05:57:04.374Z,-1.80
2018-03-17T05:59:30.616Z,-2.00
2018-03-17T06:01:56.914Z,-2.10
2018-03-17T06:04:23.226Z,-2.20
2018-03-17T06:06:49.543Z,-2.10
2018-03-17T06:09:15.788Z,-2.10
2018-03-17T06:11:42.096Z,-2.10
2018-03-17T06:14:09.223Z,-2.00
2018-03-17T06:16:35.480Z,-2.00
2018-03-17T06:19:01.803Z,-2.10
2018-03-17T06:21:28.245Z,-2.20
2018-03-17T06:23:54.513Z,-2.20
2018-03-17T06:26:26.367Z,-2.10
2018-03-17T06:28:52.666Z,-2.10
2018-03-17T06:31:18.954Z,-2.10
2018-03-17T06:33:45.166Z,-2.10
2018-03-17T06:36:11.432Z,-2.10
2018-03-17T06:38:37.726Z,-2.10
2018-03-17T06:41:04.017Z,-1.90
2018-03-17T06:43:30.280Z,-1.80
2018-03-17T06:45:57.670Z,-1.90
2018-03-17T06:48:24.706Z,-2.10
2018-03-17T06:50:51.057Z,-2.20
2018-03-17T06:53:17.754Z,-2.30
2018-03-17T06:55:44.017Z,-2.40
2018-03-17T06:58:10.368Z,-2.40
2018-03-17T07:00:36.705Z,-2.30
2018-03-17T07:03:02.958Z,-2.30
2018-03-17T07:05:29.234Z,-2.20
2018-03-17T07:07:56.603Z,-2.20
2018-03-17T07:10:22.971Z,-2.20
2018-03-17T07:12:49.251Z,-2.20
2018-03-17T07:15:15.530Z,-2.20
2018-03-17T07:17:42.535Z,-2.10
2018-03-17T07:20:08.833Z,-2.10
2018-03-17T07:22:35.874Z,-2.20
2018-03-17T07:25:02.857Z,-2.20
2018-03-17T07:27:29.976Z,-2.30
2018-03-17T07:29:57.014Z,-2.30
2018-03-17T07:32:23.351Z,-2.40
2018-03-17T07:34:49.678Z,-2.40
2018-03-17T07:37:15.983Z,-2.30
2018-03-17T07:39:42.322Z,-2.40
2018-03-17T07:42:08.734Z,-2.30
2018-03-17T07:44:38.734Z,-2.30
2018-03-17T07:47:05.809Z,-2.20
2018-03-17T07:49:32.131Z,-2.20
2018-03-17T07:52:00.226Z,-2.40
2018-03-17T07:54:26.720Z,-2.40
2018-03-17T07:56:53.069Z,-2.30
2018-03-17T07:59:19.406Z,-2.40
2018-03-17T08:02:03.739Z,-2.40
2018-03-17T08:04:30.087Z,-2.50
2018-03-17T08:06:56.561Z,-2.50
2018-03-17T08:09:22.881Z,-2.50
2018-03-17T08:11:52.756Z,-2.60
2018-03-17T08:14:19.291Z,-2.60
2018-03-17T08:16:47.684Z,-2.60
2018-03-17T08:19:14.151Z,-2.50
2018-03-17T08:21:41.369Z,-2.30
2018-03-17T08:24:10.039Z,-2.30
2018-03-17T08:26:36.528Z,-2.20
2018-03-17T08:29:02.894Z,-2.20
2018-03-17T08:31:30.071Z,-2.10
2018-03-17T08:33:59.294Z,-2.00
2018-03-17T08:36:25.614Z,-2.10
2018-03-17T08:38:51.943Z,-2.10
2018-03-17T08:41:29.820Z,-2.10
2018-03-17T08:43:56.182Z,-2.10
2018-03-17T08:46:24.739Z,-1.90
2018-03-17T08:48:51.086Z,-1.80
2018-03-17T08:51:17.618Z,-1.70
2018-03-17T08:53:44.361Z,-1.80
2018-03-17T08:56:16.322Z,-1.80
2018-03-17T08:58:42.777Z,-1.80
2018-03-17T09:01:09.279Z,-1.80
2018-03-17T09:03:35.796Z,-1.70
2018-03-17T09:06:03.028Z,-1.60
2018-03-17T09:08:30.151Z,-1.30
2018-03-17T09:11:02.370Z,-1.40
2018-03-17T09:13:28.712Z,-1.20
2018-03-17T09:15:55.273Z,-1.10
2018-03-17T09:18:21.611Z,-1.20
2018-03-17T09:20:47.996Z,-1.20
2018-03-17T09:23:14.389Z,-1.30
2018-03-17T09:25:40.942Z,-1.40
2018-03-17T09:28:07.353Z,-1.60
2018-03-17T09:30:33.663Z,-1.70
2018-03-17T09:33:00.071Z,-1.70
2018-03-17T09:35:26.552Z,-1.80
2018-03-17T09:37:53.637Z,-1.50
2018-03-17T09:40:19.939Z,-1.60
2018-03-17T09:42:51.888Z,-1.60
2018-03-17T09:45:18.267Z,-1.60
2018-03-17T09:47:45.391Z,-1.50
2018-03-17T09:50:11.783Z,-1.50
2018-03-17T09:52:38.168Z,-1.40
2018-03-17T09:55:05.278Z,-1.90
2018-03-17T09:57:32.525Z,-2.10
2018-03-17T09:59:58.895Z,-2.10
2018-03-17T10:02:25.992Z,-2.10
2018-03-17T10:04:52.381Z,-2.10
2018-03-17T10:07:18.721Z,-2.00
2018-03-17T10:09:45.197Z,-2.00
2018-03-17T10:12:12.439Z,-2.20
2018-03-17T10:14:39.574Z,-1.90
2018-03-17T10:17:11.590Z,-1.80
2018-03-17T10:19:38.009Z,-1.80
2018-03-17T10:22:04.523Z,-1.60
2018-03-17T10:24:30.990Z,-1.50
2018-03-17T10:27:03.573Z,-1.40
2018-03-17T10:29:30.000Z,-1.30
2018-03-17T10:31:56.552Z,-1.10
2018-03-17T10:34:22.995Z,-1.10
2018-03-17T10:36:49.551Z,-1.10
2018-03-17T10:39:23.230Z,-1.10
2018-03-17T10:41:49.541Z,-1.10
2018-03-17T10:44:15.909Z,-1.10
2018-03-17T10:46:43.075Z,-1.10
2018-03-17T10:49:09.680Z,-1.40
2018-03-17T10:51:36.508Z,-1.80
2018-03-17T10:54:02.925Z,-1.90
2018-03-17T10:56:30.056Z,-1.80
2018-03-17T10:58:56.435Z,-1.80
2018-03-17T11:01:24.725Z,-1.90
2018-03-17T11:03:52.249Z,-1.80
2018-03-17T11:06:18.841Z,-1.80
2018-03-17T11:08:46.029Z,-1.60
2018-03-17T11:11:13.338Z,-1.60
2018-03-17T11:13:44.361Z,-1.60
2018-03-17T11:16:13.968Z,-1.60
2018-03-17T11:18:41.309Z,-1.60
2018-03-17T11:21:08.479Z,-1.50
2018-03-17T11:23:34.821Z,-1.60
2018-03-17T11:26:01.225Z,-1.80
2018-03-17T11:28:29.625Z,-1.90
2018-03-17T11:30:55.906Z,-1.70
2018-03-17T11:33:23.061Z,-1.40
2018-03-17T11:35:49.449Z,-1.50
2018-03-17T11:38:15.818Z,-1.40
2018-03-17T11:40:49.858Z,-1.50
2018-03-17T11:43:16.259Z,-1.60
2018-03-17T11:45:42.649Z,-1.70
2018-03-17T11:48:09.493Z,-1.60
2018-03-17T11:50:36.850Z,-1.60
2018-03-17T11:53:03.199Z,-1.80
2018-03-17T11:55:29.571Z,-1.90
2018-03-17T11:57:57.426Z,-2.00
2018-03-17T12:00:24.032Z,-2.00
2018-03-17T12:02:50.462Z,-1.80
2018-03-17T12:05:17.513Z,-1.70
2018-03-17T12:07:44.596Z,-1.60
2018-03-17T12:10:11.131Z,-1.60
2018-03-17T12:12:38.305Z,-1.90
2018-03-17T12:15:05.603Z,-2.00
2018-03-17T12:17:32.019Z,-2.00
2018-03-17T12:19:58.393Z,-2.40
2018-03-17T12:22:30.290Z,-2.70
2018-03-17T12:24:57.744Z,-2.50
2018-03-17T12:27:24.091Z,-2.50
2018-03-17T12:29:50.538Z,-2.70
2018-03-17T12:32:16.894Z,-2.60
2018-03-17T12:34:43.290Z,-2.50
2018-03-17T12:37:10.648Z,-2.40
2018-03-17T12:39:37.124Z,-2.30
2018-03-17T12:42:03.515Z,-2.10
2018-03-17T12:44:30.691Z,-2.20
2018-03-17T12:46:58.569Z,-2.20
2018-03-17T12:49:40.558Z,-2.10
2018-03-17T12:52:07.572Z,-2.10
2018-03-17T12:54:33.890Z,-2.20
2018-03-17T12:57:00.263Z,-2.10
2018-03-17T12:59:27.293Z,-2.20
2018-03-17T13:01:54.458Z,-2.00
2018-03-17T13:04:21.533Z,-2.00
2018-03-17T13:06:47.967Z,-2.00
2018-03-17T13:09:15.147Z,-2.00
2018-03-17T13:11:41.562Z,-2.00
2018-03-17T13:14:09.557Z,-2.10
2018-03-17T13:16:35.918Z,-2.00
2018-03-17T13:19:02.244Z,-1.90
2018-03-17T13:21:29.349Z,-1.80
2018-03-17T13:23:55.834Z,-1.80
2018-03-17T13:26:22.216Z,-1.60
2018-03-17T13:28:48.751Z,-1.60
2018-03-17T13:31:15.198Z,-1.90
2018-03-17T13:33:41.599Z,-2.20
2018-03-17T13:36:22.544Z,-2.30
2018-03-17T13:38:48.890Z,-2.30
2018-03-17T13:41:15.294Z,-2.20
2018-03-17T13:43:41.768Z,-2.30
2018-03-17T13:46:16.758Z,-2.40
2018-03-17T13:48:43.134Z,-2.30
2018-03-17T13:51:09.781Z,-2.20
2018-03-17T13:53:38.274Z,-2.20
2018-03-17T13:56:06.014Z,-2.20
2018-03-17T13:58:32.341Z,-2.20
2018-03-17T14:00:58.707Z,-2.20
2018-03-17T14:03:25.628Z,-2.20
2018-03-17T14:05:54.007Z,-2.20
2018-03-17T14:08:21.088Z,-2.30
2018-03-17T14:13:33.450Z,-2.40
2018-03-17T14:15:59.887Z,-2.50
2018-03-17T14:18:26.219Z,-2.60
2018-03-17T14:20:52.945Z,-2.50
2018-03-17T14:23:20.184Z,-2.60
2018-03-17T14:25:46.521Z,-2.60
2018-03-17T14:28:12.918Z,-2.50
2018-03-17T14:30:39.526Z,-2.50
2018-03-17T14:33:05.872Z,-2.50
2018-03-17T14:35:35.644Z,-2.50
2018-03-17T14:38:02.211Z,-2.60
2018-03-17T14:40:29.684Z,-2.60
2018-03-17T14:42:56.022Z,-2.60
2018-03-17T14:45:22.500Z,-2.70
2018-03-17T14:47:48.865Z,-2.60
2018-03-17T14:50:15.482Z,-2.60
2018-03-17T14:52:43.631Z,-2.60
2018-03-17T14:55:10.371Z,-2.50
2018-03-17T14:57:36.870Z,-2.40
2018-03-17T15:00:05.508Z,-2.50
2018-03-17T15:02:41.080Z,-2.60
2018-03-17T15:05:07.492Z,-2.60
2018-03-17T15:07:33.954Z,-2.50
2018-03-17T15:10:01.110Z,-2.60
2018-03-17T15:12:28.265Z,-2.50
2018-03-17T15:14:54.876Z,-2.50
2018-03-17T15:17:22.316Z,-2.50
2018-03-17T15:19:48.762Z,-2.60
2018-03-17T15:22:15.295Z,-2.60
2018-03-17T15:24:43.623Z,-2.50
2018-03-17T15:27:11.360Z,-2.20
2018-03-17T15:29:37.726Z,-2.20
2018-03-17T15:32:04.096Z,-2.30
2018-03-17T15:34:30.434Z,-2.40
2018-03-17T15:36:56.866Z,-2.60
2018-03-17T15:39:23.254Z,-2.60
2018-03-17T15:41:49.627Z,-2.70
2018-03-17T15:44:15.946Z,-2.70
2018-03-17T15:46:42.495Z,-2.70
2018-03-17T15:49:09.939Z,-2.60
2018-03-17T15:51:37.114Z,-2.70
2018-03-17T15:54:03.468Z,-2.80
2018-03-17T15:56:38.732Z,-2.70
2018-03-17T15:59:05.859Z,-3.00
2018-03-17T16:01:40.862Z,-3.00
2018-03-17T16:04:07.693Z,-3.00
2018-03-17T16:06:34.223Z,-3.10
2018-03-17T16:09:10.570Z,-3.20
2018-03-17T16:11:37.025Z,-3.20
2018-03-17T16:14:03.435Z,-3.10
2018-03-17T16:16:30.610Z,-3.00
2018-03-17T16:19:01.451Z,-3.00
2018-03-17T16:21:28.785Z,-3.00
2018-03-17T16:23:55.187Z,-3.10
2018-03-17T16:26:21.558Z,-3.10
2018-03-17T16:28:48.008Z,-3.10
2018-03-17T16:31:18.630Z,-3.00
2018-03-17T16:33:45.111Z,-3.00
2018-03-17T16:36:11.617Z,-2.90
2018-03-17T16:38:38.021Z,-2.90
2018-03-17T16:41:05.156Z,-2.90
2018-03-17T16:43:31.688Z,-2.90
2018-03-17T16:45:58.394Z,-2.90
2018-03-17T16:48:24.791Z,-3.10
2018-03-17T16:50:51.906Z,-3.00
2018-03-17T16:53:18.379Z,-3.00
2018-03-17T16:55:45.065Z,-3.00
2018-03-17T16:58:12.151Z,-3.00
2018-03-17T17:00:39.551Z,-3.00
2018-03-17T17:03:06.247Z,-3.10
2018-03-17T17:05:32.583Z,-3.10
2018-03-17T17:08:04.780Z,-3.00
2018-03-17T17:10:32.727Z,-3.00
2018-03-17T17:13:00.296Z,-3.00
2018-03-17T17:15:26.901Z,-3.00
2018-03-17T17:17:54.438Z,-2.80
2018-03-17T17:20:22.715Z,-2.80
2018-03-17T17:22:49.066Z,-2.80
2018-03-17T17:25:15.521Z,-2.80
2018-03-17T17:27:42.265Z,-2.80
2018-03-17T17:30:10.022Z,-2.60
2018-03-17T17:32:37.856Z,-2.60
2018-03-17T17:35:05.003Z,-2.90
2018-03-17T17:37:32.934Z,-3.00
2018-03-17T17:39:59.670Z,-3.00
2018-03-17T17:42:26.144Z,-3.10
2018-03-17T17:44:52.488Z,-3.10
2018-03-17T17:47:18.857Z,-3.00
2018-03-17T17:49:45.602Z,-2.90
2018-03-17T17:52:12.095Z,-3.00
2018-03-17T17:54:38.522Z,-3.00
2018-03-17T17:57:04.912Z,-3.00
2018-03-17T17:59:31.280Z,-3.10
2018-03-17T18:01:57.826Z,-3.00
2018-03-17T18:04:24.385Z,-2.80
2018-03-17T18:06:51.622Z,-2.80
2018-03-17T18:09:18.084Z,-2.70
2018-03-17T18:11:44.632Z,-2.70
2018-03-17T18:14:11.628Z,-3.00
2018-03-17T18:16:38.005Z,-2.90
2018-03-17T18:19:04.402Z,-2.80
2018-03-17T18:21:34.987Z,-2.80
2018-03-17T18:24:01.493Z,-2.60
2018-03-17T18:26:28.342Z,-2.60
2018-03-17T18:28:54.691Z,-2.80
2018-03-17T18:31:21.078Z,-2.90
2018-03-17T18:33:47.431Z,-2.80
2018-03-17T18:36:13.945Z,-2.80
2018-03-17T18:38:40.718Z,-2.70
2018-03-17T18:41:11.653Z,-2.60
2018-03-17T18:43:38.798Z,-2.50
2018-03-17T18:46:05.884Z,-2.50
2018-03-17T18:48:33.489Z,-2.70
2018-03-17T18:51:00.159Z,-2.80
2018-03-17T18:53:26.483Z,-3.00
2018-03-17T18:55:52.854Z,-2.90
2018-03-17T18:58:19.244Z,-2.80
2018-03-17T19:00:47.168Z,-2.50
2018-03-17T19:03:13.463Z,-2.50
2018-03-17T19:05:40.587Z,-2.80
2018-03-17T19:08:07.003Z,-2.80
2018-03-17T19:10:33.370Z,-2.80
2018-03-17T19:13:00.541Z,-2.80
2018-03-17T19:15:27.144Z,-2.80
2018-03-17T19:17:56.838Z,-2.90
2018-03-17T19:20:25.209Z,-3.10
2018-03-17T19:23:08.940Z,-3.10
2018-03-17T19:25:38.469Z,-3.00
2018-03-17T19:28:05.123Z,-3.20
2018-03-17T19:30:31.471Z,-3.00
2018-03-17T19:32:58.089Z,-3.00
2018-03-17T19:35:24.488Z,-3.00
2018-03-17T19:37:50.874Z,-3.10
2018-03-17T19:40:18.234Z,-3.10
2018-03-17T19:42:44.604Z,-3.00
2018-03-17T19:45:11.368Z,-3.00
2018-03-17T19:47:50.753Z,-3.10
2018-03-17T19:50:18.968Z,-3.00
2018-03-17T19:52:46.153Z,-3.00
2018-03-17T19:55:13.174Z,-3.00
2018-03-17T19:57:39.756Z,-3.00
2018-03-17T20:00:06.527Z,-3.10
2018-03-17T20:02:32.961Z,-3.10
2018-03-17T20:04:59.330Z,-3.00
2018-03-17T20:07:25.699Z,-3.00
2018-03-17T20:09:52.818Z,-2.90
2018-03-17T20:12:20.041Z,-2.90
2018-03-17T20:14:46.366Z,-3.00
2018-03-17T20:17:14.130Z,-2.90
2018-03-17T20:19:40.510Z,-3.00
2018-03-17T20:22:06.879Z,-3.00
2018-03-17T20:24:33.210Z,-2.90
2018-03-17T20:27:01.909Z,-2.90
2018-03-17T20:29:29.319Z,-2.90
2018-03-17T20:31:55.711Z,-2.80
2018-03-17T20:34:28.963Z,-2.80
2018-03-17T20:36:55.324Z,-2.80
2018-03-17T20:39:21.725Z,-3.00
2018-03-17T20:41:48.058Z,-3.10
2018-03-17T20:44:14.489Z,-3.20
2018-03-17T20:46:40.805Z,-3.20
2018-03-17T20:49:07.138Z,-3.10
2018-03-17T20:51:34.607Z,-3.00
2018-03-17T20:54:02.046Z,-3.20
2018-03-17T20:56:39.612Z,-3.10
2018-03-17T20:59:06.012Z,-3.00
2018-03-17T21:01:32.366Z,-3.10
2018-03-17T21:03:59.776Z,-3.20
2018-03-17T21:06:26.229Z,-3.30
2018-03-17T21:08:52.671Z,-3.30
2018-03-17T21:11:20.082Z,-3.30
2018-03-17T21:13:46.411Z,-3.10
2018-03-17T21:16:12.801Z,-3.10
2018-03-17T21:18:40.236Z,-3.10
2018-03-17T21:21:06.635Z,-3.20
2018-03-17T21:23:33.832Z,-3.20
2018-03-17T21:26:00.980Z,-3.20
2018-03-17T21:28:37.452Z,-3.30
2018-03-17T21:31:04.670Z,-3.40
2018-03-17T21:33:31.229Z,-3.40
2018-03-17T21:35:58.486Z,-3.30
2018-03-17T21:38:29.457Z,-3.30
2018-03-17T21:40:56.770Z,-3.40
2018-03-17T21:43:24.896Z,-3.40
2018-03-17T21:45:51.280Z,-3.50
2018-03-17T21:48:17.577Z,-3.40
2018-03-17T21:50:44.045Z,-3.20
2018-03-17T21:53:11.175Z,-3.10
2018-03-17T21:55:39.235Z,-3.20
2018-03-17T21:58:05.580Z,-3.20
2018-03-17T22:00:31.948Z,-2.90
2018-03-17T22:02:58.571Z,-2.90
2018-03-17T22:05:24.910Z,-3.10
2018-03-17T22:07:51.358Z,-3.10
2018-03-17T22:10:18.413Z,-3.20
2018-03-17T22:12:44.810Z,-3.20
2018-03-17T22:15:11.935Z,-3.20
2018-03-17T22:17:38.233Z,-3.20
2018-03-17T22:20:25.022Z,-3.30
2018-03-17T22:22:51.463Z,-3.30
2018-03-17T22:25:17.771Z,-3.10
2018-03-17T22:27:44.197Z,-3.20
2018-03-17T22:30:13.436Z,-3.10
2018-03-17T22:32:43.797Z,-3.10
2018-03-17T22:35:12.498Z,-3.20
2018-03-17T22:37:38.850Z,-3.30
2018-03-17T22:40:05.227Z,-3.20
2018-03-17T22:42:33.333Z,-3.30
2018-03-17T22:44:59.621Z,-3.30
2018-03-17T22:47:40.934Z,-3.30
2018-03-17T22:50:07.944Z,-3.40
2018-03-17T22:52:34.209Z,-3.40
2018-03-17T22:55:00.465Z,-3.20
2018-03-17T22:57:26.828Z,-3.30
2018-03-17T22:59:53.876Z,-3.20
2018-03-17T23:02:20.118Z,-3.20
2018-03-17T23:04:47.122Z,-3.30
2018-03-17T23:07:13.414Z,-3.30
2018-03-17T23:09:39.747Z,-3.30
2018-03-17T23:12:06.025Z,-3.20
2018-03-17T23:14:46.019Z,-3.20
2018-03-17T23:17:12.339Z,-3.30
2018-03-17T23:19:38.615Z,-3.20
2018-03-17T23:22:04.862Z,-3.20
2018-03-17T23:24:31.120Z,-3.10
2018-03-17T23:26:57.424Z,-3.20
2018-03-17T23:29:23.724Z,-3.10
2018-03-17T23:31:50.787Z,-3.10
2018-03-17T23:34:17.029Z,-3.10
2018-03-17T23:36:43.401Z,-3.20
2018-03-17T23:39:16.930Z,-3.10
2018-03-17T23:41:43.199Z,-3.10
2018-03-17T23:44:09.539Z,-3.20
2018-03-17T23:46:46.891Z,-3.30
2018-03-17T23:49:13.247Z,-3.30
2018-03-17T23:51:39.537Z,-3.20
2018-03-17T23:54:05.862Z,-3.20
2018-03-17T23:56:42.439Z,-3.20
2018-03-17T23:59:08.735Z,-3.20
